Time;durP1;ratioP1;P1;durP2;ratioP2;P2;SDS_P1;SDS_P2;PMS_P1;PMS_P2;Temp;Humidity;BMP_temperature;BMP_pressure;BME280_temperature;BME280_humidity;BME280_pressure;Samples;Min_cycle;Max_cycle;Signal;HPM_P1;HPM_P2
2023/07/16 00:01:53;;;;;;;6.90;1.30;;;;;;;23.53;45.70;100857.34;16101539;19;130600;-49
2023/07/16 00:07:17;;;;;;;5.25;1.30;;;;;;;23.53;45.96;100854.53;16120507;19;129800;-44
2023/07/16 00:12:40;;;;;;;5.40;1.27;;;;;;;23.53;45.44;100854.53;16119132;19;129998;-46
2023/07/16 00:18:02;;;;;;;4.45;1.35;;;;;;;23.52;45.80;100858.44;16118008;19;130248;-48
2023/07/16 00:23:24;;;;;;;5.53;1.30;;;;;;;23.50;45.56;100855.13;16116215;19;131459;-52
2023/07/16 00:28:45;;;;;;;6.18;1.40;;;;;;;23.49;45.81;100848.69;16124714;19;130530;-45
2023/07/16 00:34:07;;;;;;;6.00;1.45;;;;;;;23.49;45.60;100859.03;16119910;19;129820;-47
2023/07/16 00:39:30;;;;;;;6.18;1.55;;;;;;;23.48;46.06;100862.94;16115071;19;130962;-44
2023/07/16 00:44:52;;;;;;;4.10;1.13;;;;;;;23.47;45.85;100864.88;16115558;19;130823;-46
2023/07/16 00:50:14;;;;;;;6.20;1.23;;;;;;;23.47;45.50;100866.84;16114265;19;129907;-47
2023/07/16 00:55:36;;;;;;;3.25;1.20;;;;;;;23.46;45.58;100856.78;16108824;19;130707;-46
2023/07/16 01:00:58;;;;;;;2.55;1.20;;;;;;;23.45;45.55;100858.72;16089752;19;132572;-48
2023/07/16 01:06:26;;;;;;;4.88;1.30;;;;;;;23.45;45.60;100863.50;16110468;19;132380;-44
2023/07/16 01:11:49;;;;;;;4.30;1.30;;;;;;;23.45;45.53;100871.88;16114777;19;129379;-47
2023/07/16 01:17:11;;;;;;;3.97;1.10;;;;;;;23.44;45.28;100861.81;16109585;19;129792;-46
2023/07/16 01:22:52;;;;;;;2.97;0.95;;;;;;;23.45;45.89;100863.50;16106904;19;130920;-46
2023/07/16 01:28:24;;;;;;;4.03;1.00;;;;;;;23.43;45.47;100866.56;16113430;19;129575;-44
2023/07/16 01:33:47;;;;;;;6.53;1.55;;;;;;;23.42;45.50;100886.38;16117171;19;131727;-46
2023/07/16 01:39:09;;;;;;;5.10;1.40;;;;;;;23.42;45.50;100883.59;16118599;19;129639;-49
2023/07/16 01:44:31;;;;;;;2.10;1.17;;;;;;;23.41;45.59;100868.81;16115312;19;130361;-49
2023/07/16 01:49:53;;;;;;;4.70;1.48;;;;;;;23.40;45.46;100883.03;16120919;19;129591;-44
2023/07/16 01:55:14;;;;;;;2.65;1.00;;;;;;;23.40;45.38;100880.25;16101928;19;132215;-46
2023/07/16 02:00:37;;;;;;;2.65;1.15;;;;;;;23.40;45.56;100888.59;16112352;19;129591;-47
2023/07/16 02:05:59;;;;;;;5.15;1.50;;;;;;;23.39;45.24;100898.09;16113113;19;131075;-46
2023/07/16 02:11:20;;;;;;;3.28;1.00;;;;;;;23.38;45.19;100896.47;16104698;19;130250;-47
2023/07/16 02:16:43;;;;;;;3.40;1.20;;;;;;;23.38;45.57;100907.63;16106068;19;129593;-47
2023/07/16 02:22:05;;;;;;;2.78;0.90;;;;;;;23.38;45.41;100904.81;16108676;19;130526;-45
2023/07/16 02:27:27;;;;;;;4.38;1.27;;;;;;;23.38;45.46;100913.22;16108188;19;130797;-49
2023/07/16 02:32:49;;;;;;;3.13;1.15;;;;;;;23.38;45.23;100918.78;16108919;19;130053;-47
2023/07/16 02:38:11;;;;;;;4.97;1.38;;;;;;;23.37;45.06;100920.72;16111007;19;130275;-46
2023/07/16 02:43:33;;;;;;;7.03;1.23;;;;;;;23.37;45.39;100925.50;16109505;19;130529;-47
2023/07/16 02:48:55;;;;;;;2.53;1.30;;;;;;;23.37;45.09;100923.50;16110223;19;129954;-50
2023/07/16 02:54:17;;;;;;;1.77;0.90;;;;;;;23.36;45.28;100927.41;16108304;19;129500;-47
2023/07/16 02:59:39;;;;;;;4.80;1.30;;;;;;;23.35;44.86;100932.19;16109560;19;129979;-48
2023/07/16 03:05:02;;;;;;;4.07;1.10;;;;;;;23.34;45.20;100941.66;16105160;19;131384;-46
2023/07/16 03:10:26;;;;;;;6.50;1.20;;;;;;;23.34;44.96;100936.09;16108399;19;130662;-46
2023/07/16 03:15:49;;;;;;;3.03;1.23;;;;;;;23.32;44.85;100948.66;16102463;19;129959;-49
2023/07/16 03:21:11;;;;;;;4.95;1.40;;;;;;;23.33;44.78;100950.31;16101851;19;131529;-44
2023/07/16 03:26:33;;;;;;;4.75;1.52;;;;;;;23.31;44.96;100947.81;16106143;19;130602;-47
2023/07/16 03:31:55;;;;;;;2.55;1.33;;;;;;;23.30;44.86;100939.72;16103467;19;130314;-48
2023/07/16 03:37:17;;;;;;;3.03;1.25;;;;;;;23.28;45.05;100931.59;16105756;19;130905;-47
2023/07/16 03:42:39;;;;;;;5.05;1.10;;;;;;;23.28;45.06;100944.72;16123033;19;130029;-49
2023/07/16 03:48:01;;;;;;;2.55;1.30;;;;;;;23.27;44.59;100963.41;16121193;19;129469;-48
2023/07/16 03:53:23;;;;;;;4.80;1.40;;;;;;;23.26;44.53;100975.72;16116619;19;130298;-44
2023/07/16 03:58:45;;;;;;;3.13;1.30;;;;;;;23.26;44.47;100975.72;16119954;19;131757;-49
2023/07/16 04:04:07;;;;;;;2.83;1.23;;;;;;;23.26;44.50;100981.31;16118121;19;129388;-49
2023/07/16 04:09:29;;;;;;;3.85;1.63;;;;;;;23.25;44.62;100985.22;16119765;19;129720;-47
2023/07/16 04:14:56;;;;;;;4.00;1.40;;;;;;;23.24;44.48;101000.28;16120109;19;130024;-50
2023/07/16 04:20:18;;;;;;;4.63;1.42;;;;;;;23.23;44.54;101000.53;16119102;19;130689;-49
2023/07/16 04:25:40;;;;;;;2.70;1.48;;;;;;;23.21;44.30;101009.19;16114710;19;131821;-47
2023/07/16 04:31:02;;;;;;;4.90;1.92;;;;;;;23.21;44.12;101012.00;16110063;19;129455;-50
2023/07/16 04:36:25;;;;;;;4.03;1.58;;;;;;;23.21;44.60;101014.78;16115258;19;129864;-47
2023/07/16 04:41:47;;;;;;;3.60;1.83;;;;;;;23.19;44.16;101017.00;16113425;19;131007;-49
2023/07/16 04:47:08;;;;;;;3.92;1.98;;;;;;;23.18;43.83;101015.31;16120257;19;130925;-47
2023/07/16 04:52:30;;;;;;;4.25;1.98;;;;;;;23.17;44.10;101031.25;16121072;19;129576;-48
2023/07/16 04:57:53;;;;;;;5.00;1.60;;;;;;;23.17;44.29;101034.03;16119901;19;132177;-47
2023/07/16 05:03:15;;;;;;;3.58;1.83;;;;;;;23.18;43.95;101046.03;16114519;19;130779;-51
2023/07/16 05:08:37;;;;;;;4.15;1.80;;;;;;;23.16;43.40;101040.72;16112768;19;129581;-52
2023/07/16 05:13:59;;;;;;;4.47;2.13;;;;;;;23.17;43.49;101035.97;16116715;19;131452;-49
2023/07/16 05:19:21;;;;;;;3.70;1.90;;;;;;;23.17;43.68;101035.97;16114357;19;130341;-49
2023/07/16 05:24:44;;;;;;;5.60;2.30;;;;;;;23.17;43.23;101041.56;16113309;19;130404;-45
2023/07/16 05:30:06;;;;;;;4.03;2.08;;;;;;;23.16;43.24;101043.53;16113346;19;129970;-44
2023/07/16 05:35:28;;;;;;;3.70;2.17;;;;;;;23.15;43.15;101047.41;16112399;19;130584;-49
2023/07/16 05:40:50;;;;;;;4.88;2.03;;;;;;;23.15;43.28;101046.56;16114408;19;134092;-47
2023/07/16 05:46:12;;;;;;;3.85;2.20;;;;;;;23.16;42.92;101053.81;16111930;19;131352;-47
2023/07/16 05:51:34;;;;;;;5.28;2.30;;;;;;;23.15;43.09;101050.22;16113275;19;130345;-51
2023/07/16 05:56:56;;;;;;;5.03;2.97;;;;;;;23.16;42.96;101074.22;16111910;19;130720;-48
2023/07/16 06:02:18;;;;;;;6.03;2.30;;;;;;;23.14;42.77;101073.66;16109281;19;130354;-51
2023/07/16 06:07:40;;;;;;;6.30;2.53;;;;;;;23.15;43.06;101082.84;16109963;19;129970;-45
2023/07/16 06:13:02;;;;;;;7.50;3.03;;;;;;;23.14;42.68;101082.03;16108703;19;129759;-44
2023/07/16 06:18:24;;;;;;;8.32;3.08;;;;;;;23.14;42.40;101075.63;16107565;19;130056;-51
2023/07/16 06:23:46;;;;;;;8.57;3.15;;;;;;;23.14;42.42;101081.19;16108253;19;130312;-47
2023/07/16 06:29:08;;;;;;;5.15;2.53;;;;;;;23.13;42.74;101076.72;16104922;19;129924;-46
2023/07/16 06:34:30;;;;;;;7.22;3.60;;;;;;;23.11;42.47;101085.34;16114855;19;130702;-49
2023/07/16 06:39:52;;;;;;;6.75;3.13;;;;;;;23.12;42.33;101100.97;16111520;19;129984;-47
2023/07/16 06:45:14;;;;;;;6.40;3.40;;;;;;;23.12;42.10;101097.38;16110896;19;131072;-45
2023/07/16 06:50:36;;;;;;;4.97;2.92;;;;;;;23.12;42.37;101102.94;16110113;19;129682;-49
2023/07/16 06:55:57;;;;;;;6.47;3.30;;;;;;;23.10;42.33;101106.00;16111956;19;130328;-47
2023/07/16 07:01:19;;;;;;;7.75;3.72;;;;;;;23.10;42.15;101099.59;16105570;19;129769;-49
2023/07/16 07:06:41;;;;;;;5.50;3.17;;;;;;;23.10;42.48;101108.78;16107488;19;129344;-46
2023/07/16 07:12:04;;;;;;;11.02;4.50;;;;;;;23.09;41.27;101121.06;16107334;19;130486;-47
2023/07/16 07:17:26;;;;;;;8.85;4.28;;;;;;;23.08;41.19;101122.16;16120392;19;130730;-51
2023/07/16 07:22:48;;;;;;;12.00;3.95;;;;;;;23.28;41.05;101113.03;16122273;19;130787;-53
2023/07/16 07:28:10;;;;;;;10.20;3.88;;;;;;;23.40;40.84;101125.91;16124264;19;129663;-47
2023/07/16 07:33:32;;;;;;;15.38;5.53;;;;;;;23.49;39.38;101138.25;16117519;19;130830;-50
2023/07/16 07:38:54;;;;;;;20.55;6.45;;;;;;;23.58;39.46;101125.44;16116643;19;130674;-52
2023/07/16 07:44:16;;;;;;;12.80;5.93;;;;;;;23.59;38.73;101126.28;16119656;19;131001;-52
2023/07/16 07:49:38;;;;;;;16.98;5.88;;;;;;;23.59;38.39;101132.72;16116959;19;130701;-53
2023/07/16 07:55:00;;;;;;;14.20;5.43;;;;;;;23.60;38.29;101147.50;16119043;19;130513;-52
2023/07/16 08:00:22;;;;;;;12.45;5.95;;;;;;;23.57;38.62;101150.84;16117968;19;130386;-49
2023/07/16 08:05:44;;;;;;;13.52;5.65;;;;;;;23.55;38.08;101139.94;16121179;19;129873;-52
2023/07/16 08:11:06;;;;;;;40.25;6.80;;;;;;;23.40;37.40;101162.22;16118317;19;131290;-49
2023/07/16 08:16:28;;;;;;;18.88;6.07;;;;;;;23.31;37.93;101165.53;16117456;19;130648;-48
2023/07/16 08:21:50;;;;;;;23.85;6.22;;;;;;;23.37;38.29;101159.97;16121179;19;129772;-51
2023/07/16 08:27:12;;;;;;;14.75;6.25;;;;;;;23.48;38.53;101164.50;16115937;19;129987;-50
2023/07/16 08:32:34;;;;;;;16.23;6.13;;;;;;;23.55;38.26;101159.47;16123703;19;129927;-50
2023/07/16 08:37:56;;;;;;;18.27;6.03;;;;;;;23.64;38.79;101160.66;16114044;19;129732;-47
2023/07/16 08:43:18;;;;;;;14.95;5.72;;;;;;;23.69;38.10;101170.16;16111862;19;130114;-49
2023/07/16 08:48:40;;;;;;;13.75;5.50;;;;;;;23.74;38.27;101172.97;16122472;19;129736;-46
2023/07/16 08:54:03;;;;;;;15.80;5.25;;;;;;;23.74;38.32;101175.78;16120707;19;130752;-49
2023/07/16 08:59:27;;;;;;;11.80;4.85;;;;;;;23.76;38.57;101181.91;16115686;19;129539;-52
2023/07/16 09:04:50;;;;;;;13.55;5.32;;;;;;;23.78;38.71;101186.13;16118078;19;130286;-49
2023/07/16 09:10:13;;;;;;;11.93;6.30;;;;;;;23.74;39.05;101186.94;16112123;19;130325;-53
2023/07/16 09:15:35;;;;;;;9.73;5.28;;;;;;;23.75;38.96;101191.41;16113385;19;130803;-51
2023/07/16 09:21:05;;;;;;;19.58;6.18;;;;;;;23.73;38.19;101191.69;16113069;19;130774;-49
2023/07/16 09:26:27;;;;;;;34.70;6.63;;;;;;;23.72;38.51;101187.22;16113388;19;130392;-53
2023/07/16 09:32:05;;;;;;;19.48;5.40;;;;;;;23.79;38.67;101209.28;16113516;19;131351;-44
2023/07/16 09:37:27;;;;;;;18.75;5.20;;;;;;;23.80;39.11;101197.00;16110444;19;130946;-50
2023/07/16 09:42:50;;;;;;;13.80;5.00;;;;;;;23.64;38.74;101205.34;16106793;19;131397;-47
2023/07/16 09:48:14;;;;;;;12.85;5.50;;;;;;;23.50;38.05;101212.53;16104883;19;130914;-48
2023/07/16 09:53:36;;;;;;;11.18;4.95;;;;;;;23.33;37.61;101221.09;16102404;19;130847;-47
2023/07/16 09:58:59;;;;;;;12.45;4.65;;;;;;;23.21;37.84;101224.09;16116361;19;130453;-45
2023/07/16 10:04:21;;;;;;;13.73;4.32;;;;;;;23.23;38.00;101241.44;16114489;19;129560;-46
2023/07/16 10:09:55;;;;;;;14.13;4.10;;;;;;;23.29;38.41;101236.72;16111201;19;130795;-46
2023/07/16 10:15:25;;;;;;;12.00;4.40;;;;;;;23.32;38.24;101242.59;16112100;19;131137;-47
2023/07/16 10:20:47;;;;;;;11.48;4.82;;;;;;;23.34;38.09;101248.75;16105942;19;130791;-49
2023/07/16 10:26:13;;;;;;;13.32;4.45;;;;;;;23.37;37.66;101247.34;16103881;19;130527;-48
2023/07/16 10:31:40;;;;;;;9.52;4.65;;;;;;;23.39;37.87;101261.03;16109227;19;130283;-49
2023/07/16 10:37:03;;;;;;;14.73;4.60;;;;;;;23.41;37.60;101267.19;16106122;19;130803;-52
2023/07/16 10:42:28;;;;;;;12.77;4.28;;;;;;;23.44;38.03;101283.41;16108815;19;129533;-56
2023/07/16 10:47:55;;;;;;;11.30;4.40;;;;;;;23.47;37.72;101274.50;16109709;19;131039;-58
2023/07/16 10:53:19;;;;;;;11.13;4.32;;;;;;;23.47;37.63;101283.69;16106760;19;130946;-47
2023/07/16 10:58:42;;;;;;;14.15;4.03;;;;;;;23.51;37.69;101292.38;16107541;19;129903;-50
2023/07/16 11:04:07;;;;;;;12.48;4.65;;;;;;;23.53;37.72;101295.75;16103344;19;129557;-51
2023/07/16 11:09:29;;;;;;;12.40;4.82;;;;;;;23.55;37.86;101292.69;16108710;19;129788;-53
2023/07/16 11:14:53;;;;;;;9.13;4.05;;;;;;;23.62;37.91;101287.72;16111214;19;131061;-51
2023/07/16 11:20:19;;;;;;;10.82;4.97;;;;;;;23.66;37.54;101295.28;16110059;19;132610;-51
2023/07/16 11:25:46;;;;;;;10.07;4.00;;;;;;;23.73;37.58;101299.78;16106908;19;130375;-49
2023/07/16 11:31:15;;;;;;;9.32;4.05;;;;;;;23.75;38.21;101303.16;16108806;19;130510;-50
2023/07/16 11:36:37;;;;;;;7.32;3.72;;;;;;;23.73;38.25;101311.78;16100960;19;130836;-50
2023/07/16 11:41:59;;;;;;;9.93;4.22;;;;;;;23.75;38.16;101325.50;16107819;19;130870;-53
2023/07/16 11:47:21;;;;;;;8.13;3.90;;;;;;;23.75;38.38;101314.34;16113094;19;130064;-51
2023/07/16 11:52:53;;;;;;;8.75;3.88;;;;;;;23.79;38.15;101332.22;16110857;19;129777;-50
2023/07/16 11:58:15;;;;;;;9.35;3.88;;;;;;;23.77;38.39;101340.88;16106133;19;129751;-47
2023/07/16 12:03:37;;;;;;;7.63;3.88;;;;;;;23.77;38.38;101340.88;16116003;19;132687;-51
2023/07/16 12:08:59;;;;;;;10.95;4.28;;;;;;;23.80;38.47;101333.91;16118361;19;129442;-46
2023/07/16 12:14:21;;;;;;;8.85;4.05;;;;;;;23.80;38.71;101340.34;16125298;19;130331;-49
2023/07/16 12:19:43;;;;;;;8.07;3.85;;;;;;;23.83;38.62;101327.78;16122104;19;130200;-50
2023/07/16 12:25:05;;;;;;;9.45;3.88;;;;;;;23.85;38.78;101325.56;16117967;19;130853;-50
2023/07/16 12:30:27;;;;;;;8.85;3.92;;;;;;;23.85;38.83;101321.91;16115569;19;131053;-47
2023/07/16 12:35:49;;;;;;;7.90;3.70;;;;;;;23.85;38.71;101319.09;16112135;19;131209;-51
2023/07/16 12:41:11;;;;;;;5.45;3.28;;;;;;;23.82;38.89;101315.75;16112196;19;130924;-48
2023/07/16 12:46:33;;;;;;;7.25;3.33;;;;;;;23.84;38.86;101314.63;16116866;19;129964;-48
2023/07/16 12:51:55;;;;;;;7.70;3.70;;;;;;;23.84;38.92;101307.09;16121739;19;129740;-48
2023/07/16 12:57:17;;;;;;;6.40;3.05;;;;;;;23.85;38.98;101317.16;16116980;19;129649;-54
2023/07/16 13:02:39;;;;;;;6.05;2.95;;;;;;;23.85;39.00;101319.97;16111789;19;130719;-51
2023/07/16 13:08:01;;;;;;;5.25;3.03;;;;;;;23.85;38.61;101317.16;16110010;19;131741;-52
2023/07/16 13:13:23;;;;;;;5.70;3.42;;;;;;;23.85;38.66;101331.16;16112288;19;130559;-46
2023/07/16 13:18:45;;;;;;;5.95;3.33;;;;;;;23.84;38.96;101343.44;16115477;19;130499;-50
2023/07/16 13:24:07;;;;;;;4.65;2.88;;;;;;;23.82;39.00;101345.66;16110309;19;130904;-49
2023/07/16 13:29:30;;;;;;;15.65;3.13;;;;;;;23.82;39.02;101345.66;16112276;19;130841;-47
2023/07/16 13:34:51;;;;;;;9.55;3.72;;;;;;;23.85;38.77;101350.69;16113726;19;130150;-48
2023/07/16 13:40:14;;;;;;;15.13;3.78;;;;;;;23.88;38.84;101352.09;16117267;19;130472;-47
2023/07/16 13:45:36;;;;;;;10.07;3.55;;;;;;;23.91;39.53;101352.38;16115078;19;132590;-51
2023/07/16 13:50:58;;;;;;;9.43;3.17;;;;;;;23.93;39.21;101354.94;16116594;19;132065;-52
2023/07/16 13:56:20;;;;;;;7.97;3.55;;;;;;;23.94;38.95;101346.25;16113942;19;130425;-50
2023/07/16 14:01:42;;;;;;;10.80;3.35;;;;;;;23.96;39.43;101359.94;16111171;19;130072;-52
2023/07/16 14:07:06;;;;;;;12.02;3.00;;;;;;;23.95;39.66;101367.50;16118080;19;130199;-49
2023/07/16 14:12:28;;;;;;;11.45;3.78;;;;;;;23.92;39.56;101365.25;16115533;19;130155;-52
2023/07/16 14:17:50;;;;;;;7.20;2.75;;;;;;;23.92;39.38;101373.63;16116092;19;130161;-50
2023/07/16 14:23:15;;;;;;;10.13;3.20;;;;;;;23.92;39.62;101384.81;16114601;19;130700;-51
2023/07/16 14:28:37;;;;;;;8.88;2.90;;;;;;;23.92;39.55;101387.59;16111623;19;129369;-49
2023/07/16 14:33:59;;;;;;;11.80;2.95;;;;;;;23.93;39.92;101378.13;16113602;19;129969;-52
2023/07/16 14:39:21;;;;;;;6.15;2.65;;;;;;;23.96;39.53;101377.56;16110832;19;130352;-51
2023/07/16 14:44:43;;;;;;;12.23;2.88;;;;;;;23.99;39.67;101380.94;16110870;19;129704;-53
2023/07/16 14:50:05;;;;;;;6.43;2.90;;;;;;;23.99;39.78;101376.19;16107620;19;130473;-53
2023/07/16 14:55:27;;;;;;;9.68;2.90;;;;;;;24.00;39.84;101371.44;16111932;19;129672;-51
2023/07/16 15:00:49;;;;;;;7.05;2.85;;;;;;;24.00;39.44;101366.69;16111439;19;130456;-51
2023/07/16 15:06:11;;;;;;;10.77;2.63;;;;;;;24.01;39.55;101353.53;16111836;19;129755;-49
2023/07/16 15:11:34;;;;;;;6.28;2.35;;;;;;;24.01;39.72;101351.59;16115204;19;129343;-52
2023/07/16 15:16:56;;;;;;;7.55;2.45;;;;;;;24.03;39.67;101348.53;16104942;19;130930;-52
2023/07/16 15:22:21;;;;;;;4.97;2.47;;;;;;;24.02;39.84;101341.25;16105793;19;130838;-52
2023/07/16 15:27:44;;;;;;;6.75;2.42;;;;;;;24.04;39.45;101351.06;16105464;19;130800;-54
2023/07/16 15:33:06;;;;;;;5.47;2.30;;;;;;;24.08;39.70;101342.97;16106517;19;130535;-51
2023/07/16 15:38:28;;;;;;;8.27;1.98;;;;;;;24.11;39.80;101342.44;16119861;19;130436;-50
2023/07/16 15:43:51;;;;;;;6.70;2.13;;;;;;;24.10;39.80;101344.38;16119851;19;130248;-56
2023/07/16 15:49:12;;;;;;;6.70;2.30;;;;;;;24.11;39.68;101339.63;16120503;19;130228;-54
2023/07/16 15:54:35;;;;;;;6.75;2.22;;;;;;;24.11;39.50;101334.03;16119237;19;130629;-54
2023/07/16 15:59:57;;;;;;;7.47;2.08;;;;;;;24.10;39.23;101338.78;16113133;19;129990;-55
2023/07/16 16:05:19;;;;;;;5.63;1.90;;;;;;;24.10;39.52;101332.34;16120860;19;130591;-53
2023/07/16 16:10:44;;;;;;;4.40;1.80;;;;;;;24.09;39.60;101342.69;16120110;19;130473;-52
2023/07/16 16:16:06;;;;;;;5.80;1.70;;;;;;;24.09;39.57;101341.84;16111107;19;130961;-53
2023/07/16 16:21:28;;;;;;;5.00;1.60;;;;;;;24.09;39.42;101339.06;16113038;19;130299;-52
2023/07/16 16:26:50;;;;;;;5.72;1.63;;;;;;;24.11;39.58;101336.84;16118547;19;130445;-51
2023/07/16 16:32:12;;;;;;;3.55;1.70;;;;;;;24.14;39.51;101338.22;16112575;19;129926;-51
2023/07/16 16:37:34;;;;;;;4.85;1.60;;;;;;;24.13;39.45;101331.78;16116065;19;130272;-52
2023/07/16 16:42:56;;;;;;;4.80;1.60;;;;;;;24.14;39.71;101335.44;16113777;19;135518;-53
2023/07/16 16:48:18;;;;;;;3.88;1.73;;;;;;;24.15;39.46;101334.31;16116741;19;130009;-52
2023/07/16 16:53:41;;;;;;;4.63;1.52;;;;;;;24.15;39.30;101318.38;16115533;19;130094;-53
2023/07/16 16:59:03;;;;;;;6.40;1.83;;;;;;;24.16;39.23;101344.41;16108102;19;129749;-53
2023/07/16 17:04:25;;;;;;;7.60;1.50;;;;;;;24.14;39.23;101344.66;16106550;19;130686;-50
2023/07/16 17:09:49;;;;;;;7.22;1.80;;;;;;;24.13;39.34;101359.75;16110002;19;130500;-53
2023/07/16 17:15:14;;;;;;;7.22;1.80;;;;;;;24.12;39.25;101358.09;16105735;19;130136;-51
2023/07/16 17:20:36;;;;;;;;;;;;;;;24.07;39.29;101366.44;16114129;19;130677;-53
2023/07/16 17:25:58;;;;;;;5.95;1.65;;;;;;;24.07;39.36;101378.44;16114240;19;130613;-50
2023/07/16 17:31:20;;;;;;;5.13;1.40;;;;;;;24.04;39.11;101380.94;16111173;19;130440;-46
2023/07/16 17:36:42;;;;;;;2.50;1.35;;;;;;;24.02;39.38;101380.38;16110523;19;131401;-52
2023/07/16 17:42:04;;;;;;;3.55;1.48;;;;;;;24.01;39.42;101370.31;16113078;19;129985;-52
2023/07/16 17:47:26;;;;;;;4.53;1.50;;;;;;;23.99;39.40;101369.75;16116194;19;129723;-53
2023/07/16 17:52:49;;;;;;;3.13;1.20;;;;;;;23.95;39.22;101369.44;16112194;19;130278;-50
2023/07/16 17:58:14;;;;;;;3.60;1.55;;;;;;;23.95;39.61;101381.47;16112864;19;129542;-52
2023/07/16 18:03:36;;;;;;;;;;;;;;;23.93;39.67;101371.69;16112621;19;134543;-47
2023/07/16 18:08:58;;;;;;;4.88;1.20;;;;;;;23.95;39.68;101373.09;16112555;19;130101;-54
2023/07/16 18:14:20;;;;;;;4.68;1.63;;;;;;;23.93;39.85;101383.69;16110749;19;130445;-50
2023/07/16 18:19:42;;;;;;;8.55;1.52;;;;;;;23.91;40.06;101385.91;16114361;19;129891;-54
2023/07/16 18:25:06;;;;;;;6.68;1.52;;;;;;;23.91;39.96;101385.91;16111648;19;129834;-51
2023/07/16 18:30:28;;;;;;;8.90;1.58;;;;;;;23.90;39.71;101395.41;16112538;19;130454;-54
2023/07/16 18:35:55;;;;;;;3.50;1.65;;;;;;;23.88;40.05;101389.25;16112850;19;129734;-49
2023/07/16 18:41:17;;;;;;;5.50;1.50;;;;;;;23.85;39.56;101392.59;16110093;19;130201;-51
2023/07/16 18:46:40;;;;;;;4.35;1.63;;;;;;;23.83;39.90;101389.25;16113493;19;131020;-51
2023/07/16 18:52:03;;;;;;;6.57;1.52;;;;;;;23.80;40.10;101384.19;16111896;19;129750;-49
2023/07/16 18:57:26;;;;;;;5.47;1.40;;;;;;;23.77;40.18;101390.31;16108134;19;129565;-49
2023/07/16 19:02:48;;;;;;;9.98;2.20;;;;;;;23.73;40.04;101395.59;16108777;19;129497;-54
2023/07/16 19:08:11;;;;;;;7.15;2.67;;;;;;;23.64;40.42;101392.47;16122126;19;130322;-51
2023/07/16 19:13:33;;;;;;;6.60;2.47;;;;;;;23.58;41.18;101399.16;16139419;19;131466;-55
2023/07/16 19:18:55;;;;;;;6.60;3.20;;;;;;;23.51;41.07;101402.13;16135910;19;130532;-55
2023/07/16 19:24:17;;;;;;;6.65;2.72;;;;;;;23.47;41.50;101391.78;16138093;19;130563;-55
2023/07/16 19:29:39;;;;;;;7.82;3.00;;;;;;;23.41;41.88;101402.06;16131778;19;129526;-50
2023/07/16 19:35:01;;;;;;;5.18;2.75;;;;;;;23.38;42.02;101405.38;16135850;19;131488;-47
2023/07/16 19:40:23;;;;;;;6.32;2.72;;;;;;;23.38;41.90;101412.94;16133367;19;130674;-48
2023/07/16 19:45:45;;;;;;;8.30;2.72;;;;;;;23.39;42.21;101418.25;16136245;19;129637;-47
2023/07/16 19:51:07;;;;;;;17.10;3.30;;;;;;;23.40;42.04;101419.94;16137550;19;130263;-50
2023/07/16 19:56:29;;;;;;;10.52;3.20;;;;;;;23.41;42.11;101423.56;16136974;19;130524;-46
2023/07/16 20:01:51;;;;;;;8.00;2.72;;;;;;;23.46;42.18;101434.78;16135216;19;130275;-48
2023/07/16 20:07:13;;;;;;;9.68;2.67;;;;;;;23.48;42.14;101432.56;16136412;19;129325;-50
2023/07/16 20:12:37;;;;;;;4.45;2.75;;;;;;;23.49;42.28;101423.06;16139213;19;129319;-50
2023/07/16 20:17:59;;;;;;;16.50;3.03;;;;;;;23.47;42.48;101433.66;16138937;19;130715;-47
2023/07/16 20:23:21;;;;;;;6.25;2.70;;;;;;;23.45;42.26;101431.13;16119383;19;130071;-45
2023/07/16 20:28:43;;;;;;;21.30;3.85;;;;;;;23.44;42.47;101442.56;16115003;19;131133;-52
2023/07/16 20:34:05;;;;;;;17.23;3.25;;;;;;;23.44;42.47;101436.97;16116410;19;130142;-48
2023/07/16 20:39:29;;;;;;;10.43;2.70;;;;;;;23.44;42.40;101437.84;16115307;19;132022;-46
2023/07/16 20:45:21;;;;;;;11.73;3.10;;;;;;;23.46;42.25;101451.53;16111710;19;132495;-45
2023/07/16 20:50:43;;;;;;;12.27;3.85;;;;;;;23.42;42.72;101440.06;16109863;19;132025;-45
2023/07/16 20:56:05;;;;;;;13.38;2.95;;;;;;;23.42;42.35;101447.56;16112087;19;129438;-43
2023/07/16 21:01:27;;;;;;;7.85;2.60;;;;;;;23.42;42.28;101444.78;16111684;19;131677;-45
2023/07/16 21:06:50;;;;;;;6.57;2.85;;;;;;;23.42;42.39;101453.16;16113598;19;131380;-50
2023/07/16 21:12:12;;;;;;;10.70;3.22;;;;;;;23.40;42.38;101449.78;16114672;19;130665;-43
2023/07/16 21:17:34;;;;;;;8.85;2.58;;;;;;;23.40;42.22;101452.56;16113126;19;130447;-44
2023/07/16 21:22:56;;;;;;;12.20;2.97;;;;;;;23.39;42.42;101456.47;16114588;19;133120;-45
2023/07/16 21:28:18;;;;;;;10.60;2.92;;;;;;;23.38;42.35;101460.41;16109158;19;131505;-44
2023/07/16 21:33:40;;;;;;;6.60;2.95;;;;;;;23.37;42.70;101469.88;16105857;19;129723;-49
2023/07/16 21:39:02;;;;;;;8.75;2.22;;;;;;;23.35;42.41;101475.72;16110386;19;129317;-46
2023/07/16 21:44:24;;;;;;;6.07;2.35;;;;;;;23.33;42.72;101470.41;16114767;19;130463;-44
2023/07/16 21:49:46;;;;;;;4.60;2.30;;;;;;;23.33;42.32;101481.56;16112353;19;129915;-46
2023/07/16 21:55:10;;;;;;;6.13;2.60;;;;;;;23.31;42.37;101469.81;16107743;19;130127;-44
2023/07/16 22:00:31;;;;;;;4.05;2.08;;;;;;;23.32;42.49;101493.00;16113489;19;133475;-50
2023/07/16 22:05:53;;;;;;;5.35;2.50;;;;;;;23.30;42.00;101456.97;16111940;19;129809;-43
2023/07/16 22:11:15;;;;;;;5.47;2.45;;;;;;;23.30;42.31;101473.72;16113786;19;130229;-46
2023/07/16 22:16:38;;;;;;;4.75;2.33;;;;;;;23.30;42.59;101464.50;16112595;19;129981;-48
2023/07/16 22:22:00;;;;;;;4.78;2.38;;;;;;;23.29;42.44;101451.66;16113362;19;131383;-48
2023/07/16 22:27:23;;;;;;;6.10;2.53;;;;;;;23.27;42.11;101449.13;16109455;19;129902;-44
2023/07/16 22:32:45;;;;;;;4.18;1.88;;;;;;;23.27;42.21;101465.88;16108420;19;130131;-47
2023/07/16 22:38:07;;;;;;;4.60;2.10;;;;;;;23.27;42.38;101465.03;16108627;19;131750;-47
2023/07/16 22:43:30;;;;;;;5.07;1.80;;;;;;;23.25;42.66;101490.44;16107523;19;129761;-48
2023/07/16 22:48:53;;;;;;;4.25;2.17;;;;;;;23.25;42.76;101506.31;16105306;19;134277;-42
2023/07/16 22:54:14;;;;;;;3.28;1.88;;;;;;;23.25;42.34;101503.53;16104737;19;131008;-44
2023/07/16 22:59:37;;;;;;;3.67;2.05;;;;;;;23.24;42.24;101502.72;16107988;19;134505;-46
2023/07/16 23:04:59;;;;;;;3.97;2.28;;;;;;;23.25;42.55;101509.13;16103969;19;130303;-47
2023/07/16 23:10:21;;;;;;;4.20;2.10;;;;;;;23.24;42.15;101516.66;16109779;19;130411;-43
2023/07/16 23:15:43;;;;;;;4.55;1.80;;;;;;;23.22;42.46;101507.72;16107719;19;130658;-46
2023/07/16 23:21:07;;;;;;;3.20;1.73;;;;;;;23.21;42.49;101514.41;16105308;19;129803;-45
2023/07/16 23:26:29;;;;;;;3.63;1.65;;;;;;;23.21;42.07;101517.19;16104374;19;130171;-48
2023/07/16 23:31:51;;;;;;;4.05;1.80;;;;;;;23.20;42.32;101518.28;16104663;19;130184;-51
2023/07/16 23:37:13;;;;;;;2.97;2.00;;;;;;;23.19;42.45;101523.03;16101378;19;130977;-47
2023/07/16 23:42:35;;;;;;;5.78;2.03;;;;;;;23.19;42.51;101530.56;16101928;19;131430;-45
2023/07/16 23:47:57;;;;;;;2.35;1.33;;;;;;;23.17;42.42;101532.75;16105741;19;130890;-47
2023/07/16 23:53:19;;;;;;;2.25;1.63;;;;;;;23.19;42.51;101541.72;16102340;19;130884;-45
2023/07/16 23:58:41;;;;;;;4.85;1.70;;;;;;;23.17;42.05;101541.13;16126967;19;129817;-49
